WZZ571 ENGM-EPKK
Flight info
| Callsign | WZZ571 |
|---|---|
| Flight time | N/A |
| Altitude | 35000 |
| Route | OKSAT L996 KELIN DCT NEXIL DCT ROE DCT AMROR N983 POLON N133 NEGUV M66 KUKAM |
| Aircraft | A321/M-SDE3FGHIRWY/LB1 |
Departure
| Time | 2026-05-01 11:28 |
|---|---|
| Airport | Oslo-Gardermoen International Airport (ENGM) |
Arrival
| Time | N/A |
|---|---|
| Airport | Kraków John Paul II International Airport (EPKK) |
| Time | Latitude | Longitude | Altitude | Speed | Heading |
|---|---|---|---|---|---|
| 2026-05-01 11:00 | 60.19317 | 11.10421 | 692 ft | 0 kts | 17° |
| 2026-05-01 11:15 | 60.19305 | 11.10413 | 683 ft | 3 kts | 17° |
| 2026-05-01 11:16 | 60.19285 | 11.10399 | 682 ft | 4 kts | 30° |
| 2026-05-01 11:16 | 60.19272 | 11.10370 | 684 ft | 4 kts | 101° |
| 2026-05-01 11:16 | 60.19269 | 11.10389 | 685 ft | 4 kts | 105° |
| 2026-05-01 11:16 | 60.19262 | 11.10437 | 684 ft | 2 kts | 107° |
| 2026-05-01 11:17 | 60.19261 | 11.10439 | 684 ft | 0 kts | 107° |
| 2026-05-01 11:20 | 60.19261 | 11.10443 | 684 ft | 2 kts | 106° |
| 2026-05-01 11:21 | 60.19253 | 11.10496 | 685 ft | 5 kts | 106° |
| 2026-05-01 11:21 | 60.19242 | 11.10572 | 689 ft | 6 kts | 106° |
| 2026-05-01 11:21 | 60.19230 | 11.10663 | 688 ft | 7 kts | 106° |
| 2026-05-01 11:21 | 60.19215 | 11.10768 | 687 ft | 8 kts | 106° |
| 2026-05-01 11:22 | 60.19198 | 11.10887 | 690 ft | 9 kts | 106° |
| 2026-05-01 11:22 | 60.19185 | 11.10973 | 685 ft | 10 kts | 106° |
| 2026-05-01 11:22 | 60.19180 | 11.11112 | 686 ft | 10 kts | 64° |
| 2026-05-01 11:22 | 60.19270 | 11.11196 | 689 ft | 12 kts | 17° |
| 2026-05-01 11:23 | 60.19351 | 11.11242 | 691 ft | 12 kts | 15° |
| 2026-05-01 11:23 | 60.19437 | 11.11290 | 691 ft | 13 kts | 16° |
| 2026-05-01 11:23 | 60.19530 | 11.11345 | 691 ft | 14 kts | 16° |
| 2026-05-01 11:23 | 60.19627 | 11.11401 | 689 ft | 15 kts | 15° |
| 2026-05-01 11:24 | 60.19696 | 11.11440 | 685 ft | 15 kts | 16° |
| 2026-05-01 11:24 | 60.19800 | 11.11500 | 691 ft | 16 kts | 16° |
| 2026-05-01 11:24 | 60.20023 | 11.11629 | 691 ft | 15 kts | 16° |
| 2026-05-01 11:25 | 60.20085 | 11.11714 | 685 ft | 11 kts | 75° |
| 2026-05-01 11:25 | 60.20040 | 11.12074 | 683 ft | 13 kts | 106° |
| 2026-05-01 11:25 | 60.20008 | 11.12179 | 685 ft | 7 kts | 174° |
| 2026-05-01 11:26 | 60.19972 | 11.12163 | 685 ft | 0 kts | 196° |
| 2026-05-01 11:27 | 60.19930 | 11.12139 | 691 ft | 31 kts | 196° |
| 2026-05-01 11:27 | 60.19483 | 11.11884 | 688 ft | 100 kts | 196° |
| 2026-05-01 11:28 | 60.18629 | 11.11390 | 686 ft | 153 kts | 196° |
| 2026-05-01 11:28 | 60.17541 | 11.10733 | 1116 ft | 162 kts | 195° |
| 2026-05-01 11:28 | 60.16465 | 11.10112 | 1887 ft | 159 kts | 198° |
| 2026-05-01 11:29 | 60.14128 | 11.08832 | 2517 ft | 194 kts | 191° |
| 2026-05-01 11:29 | 60.12738 | 11.09456 | 2709 ft | 227 kts | 149° |
| 2026-05-01 11:29 | 60.10225 | 11.14271 | 3434 ft | 269 kts | 136° |
| 2026-05-01 11:30 | 60.08970 | 11.17088 | 4196 ft | 273 kts | 135° |
| 2026-05-01 11:30 | 60.07697 | 11.19962 | 4899 ft | 279 kts | 135° |
| 2026-05-01 11:30 | 60.06382 | 11.22876 | 5576 ft | 285 kts | 136° |
| 2026-05-01 11:30 | 60.05134 | 11.26025 | 6292 ft | 292 kts | 130° |
| 2026-05-01 11:31 | 60.04033 | 11.29484 | 6831 ft | 301 kts | 117° |
| 2026-05-01 11:31 | 60.03233 | 11.33374 | 7488 ft | 303 kts | 115° |
| 2026-05-01 11:31 | 60.02445 | 11.37296 | 8205 ft | 306 kts | 115° |
| 2026-05-01 11:31 | 60.01646 | 11.41256 | 8938 ft | 309 kts | 115° |
| 2026-05-01 11:32 | 60.00620 | 11.45005 | 9608 ft | 307 kts | 134° |
| 2026-05-01 11:32 | 59.99028 | 11.47737 | 10257 ft | 300 kts | 157° |
| 2026-05-01 11:32 | 59.97099 | 11.49365 | 10615 ft | 310 kts | 166° |
| 2026-05-01 11:32 | 59.95003 | 11.50896 | 10730 ft | 332 kts | 166° |
| 2026-05-01 11:33 | 59.92759 | 11.52510 | 10896 ft | 352 kts | 165° |
| 2026-05-01 11:33 | 59.90430 | 11.54195 | 11364 ft | 359 kts | 165° |
| 2026-05-01 11:33 | 59.88101 | 11.55899 | 11933 ft | 364 kts | 165° |
| 2026-05-01 11:33 | 59.85719 | 11.57654 | 12567 ft | 367 kts | 165° |
| 2026-05-01 11:34 | 59.83315 | 11.59426 | 13196 ft | 370 kts | 165° |
| 2026-05-01 11:34 | 59.80887 | 11.61209 | 13838 ft | 373 kts | 166° |
| 2026-05-01 11:34 | 59.78441 | 11.63000 | 14411 ft | 377 kts | 166° |
| 2026-05-01 11:34 | 59.75974 | 11.64801 | 14994 ft | 379 kts | 166° |
| 2026-05-01 11:35 | 59.73487 | 11.66612 | 15561 ft | 382 kts | 166° |
| 2026-05-01 11:35 | 59.70978 | 11.68436 | 16151 ft | 385 kts | 166° |
| 2026-05-01 11:35 | 59.68454 | 11.70266 | 16734 ft | 388 kts | 166° |
| 2026-05-01 11:35 | 59.65910 | 11.72106 | 17316 ft | 391 kts | 166° |
| 2026-05-01 11:36 | 59.63345 | 11.73955 | 17868 ft | 393 kts | 166° |
| 2026-05-01 11:36 | 59.60767 | 11.75812 | 18436 ft | 396 kts | 167° |
| 2026-05-01 11:36 | 59.58169 | 11.77680 | 18928 ft | 399 kts | 166° |
| 2026-05-01 11:36 | 59.55554 | 11.79559 | 19398 ft | 402 kts | 166° |
| 2026-05-01 11:37 | 59.52914 | 11.81451 | 19851 ft | 406 kts | 166° |